sensor_id;sensor_type;location;lat;lon;timestamp;temperature;humidity
20489;DHT22;10403;54.092;12.122;2024-03-17T00:00:25;7.20;99.90
20489;DHT22;10403;54.092;12.122;2024-03-17T00:02:51;7.30;99.90
20489;DHT22;10403;54.092;12.122;2024-03-17T00:05:17;7.20;99.90
20489;DHT22;10403;54.092;12.122;2024-03-17T00:07:45;7.20;99.90
20489;DHT22;10403;54.092;12.122;2024-03-17T00:10:11;7.20;99.90
20489;DHT22;10403;54.092;12.122;2024-03-17T00:12:37;7.20;99.90
20489;DHT22;10403;54.092;12.122;2024-03-17T00:15:05;7.20;99.90
20489;DHT22;10403;54.092;12.122;2024-03-17T00:17:32;7.20;99.90
20489;DHT22;10403;54.092;12.122;2024-03-17T00:20:03;7.20;99.90
20489;DHT22;10403;54.092;12.122;2024-03-17T00:22:35;7.20;99.90
20489;DHT22;10403;54.092;12.122;2024-03-17T00:25:06;7.20;99.90
20489;DHT22;10403;54.092;12.122;2024-03-17T00:27:34;7.20;99.90
20489;DHT22;10403;54.092;12.122;2024-03-17T00:30:06;7.20;99.90
20489;DHT22;10403;54.092;12.122;2024-03-17T00:32:39;7.10;99.90
20489;DHT22;10403;54.092;12.122;2024-03-17T00:35:07;7.10;99.90
20489;DHT22;10403;54.092;12.122;2024-03-17T00:37:35;7.10;99.90
20489;DHT22;10403;54.092;12.122;2024-03-17T00:40:03;7.10;99.90
20489;DHT22;10403;54.092;12.122;2024-03-17T00:42:30;7.10;99.90
20489;DHT22;10403;54.092;12.122;2024-03-17T00:44:56;7.10;99.90
20489;DHT22;10403;54.092;12.122;2024-03-17T00:47:26;7.10;99.90
20489;DHT22;10403;54.092;12.122;2024-03-17T00:49:52;7.10;99.90
20489;DHT22;10403;54.092;12.122;2024-03-17T00:52:18;7.10;99.90
20489;DHT22;10403;54.092;12.122;2024-03-17T00:54:47;7.00;99.90
20489;DHT22;10403;54.092;12.122;2024-03-17T00:57:14;7.10;99.90
20489;DHT22;10403;54.092;12.122;2024-03-17T00:59:44;6.90;99.90
20489;DHT22;10403;54.092;12.122;2024-03-17T01:02:11;6.80;99.90
20489;DHT22;10403;54.092;12.122;2024-03-17T01:04:43;6.80;99.90
20489;DHT22;10403;54.092;12.122;2024-03-17T01:07:10;6.80;99.90
20489;DHT22;10403;54.092;12.122;2024-03-17T01:09:37;6.80;99.90
20489;DHT22;10403;54.092;12.122;2024-03-17T01:12:05;6.70;99.90
20489;DHT22;10403;54.092;12.122;2024-03-17T01:14:35;6.70;99.90
20489;DHT22;10403;54.092;12.122;2024-03-17T01:17:01;6.70;99.90
20489;DHT22;10403;54.092;12.122;2024-03-17T01:19:31;6.60;99.90
20489;DHT22;10403;54.092;12.122;2024-03-17T01:22:00;6.60;99.90
20489;DHT22;10403;54.092;12.122;2024-03-17T01:24:27;6.60;99.90
20489;DHT22;10403;54.092;12.122;2024-03-17T01:26:58;6.50;99.90
20489;DHT22;10403;54.092;12.122;2024-03-17T01:29:25;6.50;99.90
20489;DHT22;10403;54.092;12.122;2024-03-17T01:31:52;6.40;99.90
20489;DHT22;10403;54.092;12.122;2024-03-17T01:34:19;6.40;99.90
20489;DHT22;10403;54.092;12.122;2024-03-17T01:36:46;6.30;99.90
20489;DHT22;10403;54.092;12.122;2024-03-17T01:39:13;6.30;99.90
20489;DHT22;10403;54.092;12.122;2024-03-17T01:41:40;6.30;99.90
20489;DHT22;10403;54.092;12.122;2024-03-17T01:44:06;6.20;99.90
20489;DHT22;10403;54.092;12.122;2024-03-17T01:46:33;6.20;99.90
20489;DHT22;10403;54.092;12.122;2024-03-17T01:49:00;6.20;99.90
20489;DHT22;10403;54.092;12.122;2024-03-17T01:51:27;6.20;99.90
20489;DHT22;10403;54.092;12.122;2024-03-17T01:53:54;6.30;99.90
20489;DHT22;10403;54.092;12.122;2024-03-17T01:56:22;6.10;99.90
20489;DHT22;10403;54.092;12.122;2024-03-17T01:58:49;6.10;99.90
20489;DHT22;10403;54.092;12.122;2024-03-17T02:01:16;6.10;99.90
20489;DHT22;10403;54.092;12.122;2024-03-17T02:03:43;6.10;99.90
20489;DHT22;10403;54.092;12.122;2024-03-17T02:06:09;6.10;99.90
20489;DHT22;10403;54.092;12.122;2024-03-17T02:08:52;6.10;99.90
20489;DHT22;10403;54.092;12.122;2024-03-17T02:11:28;6.00;99.90
20489;DHT22;10403;54.092;12.122;2024-03-17T02:13:59;6.00;99.90
20489;DHT22;10403;54.092;12.122;2024-03-17T02:16:27;5.90;99.90
20489;DHT22;10403;54.092;12.122;2024-03-17T02:18:57;5.90;99.90
20489;DHT22;10403;54.092;12.122;2024-03-17T02:21:25;6.00;99.90
20489;DHT22;10403;54.092;12.122;2024-03-17T02:23:56;5.90;99.90
20489;DHT22;10403;54.092;12.122;2024-03-17T02:26:24;5.80;99.90
20489;DHT22;10403;54.092;12.122;2024-03-17T02:28:52;5.80;99.90
20489;DHT22;10403;54.092;12.122;2024-03-17T02:31:18;5.80;99.90
20489;DHT22;10403;54.092;12.122;2024-03-17T02:33:45;5.80;99.90
20489;DHT22;10403;54.092;12.122;2024-03-17T02:36:12;5.80;99.90
20489;DHT22;10403;54.092;12.122;2024-03-17T02:38:39;5.70;99.90
20489;DHT22;10403;54.092;12.122;2024-03-17T02:41:25;5.70;99.90
20489;DHT22;10403;54.092;12.122;2024-03-17T02:43:52;5.70;99.90
20489;DHT22;10403;54.092;12.122;2024-03-17T02:46:19;5.70;99.90
20489;DHT22;10403;54.092;12.122;2024-03-17T02:48:52;5.70;99.90
20489;DHT22;10403;54.092;12.122;2024-03-17T02:51:21;5.70;99.90
20489;DHT22;10403;54.092;12.122;2024-03-17T02:53:49;5.60;99.90
20489;DHT22;10403;54.092;12.122;2024-03-17T02:56:16;5.70;99.90
20489;DHT22;10403;54.092;12.122;2024-03-17T02:58:47;5.70;99.90
20489;DHT22;10403;54.092;12.122;2024-03-17T03:01:15;5.60;99.90
20489;DHT22;10403;54.092;12.122;2024-03-17T03:03:42;5.60;99.90
20489;DHT22;10403;54.092;12.122;2024-03-17T03:06:10;5.60;99.90
20489;DHT22;10403;54.092;12.122;2024-03-17T03:08:41;5.50;99.90
20489;DHT22;10403;54.092;12.122;2024-03-17T03:11:09;5.50;99.90
20489;DHT22;10403;54.092;12.122;2024-03-17T03:13:38;5.60;99.90
20489;DHT22;10403;54.092;12.122;2024-03-17T03:16:07;5.50;99.90
20489;DHT22;10403;54.092;12.122;2024-03-17T03:18:37;5.50;99.90
20489;DHT22;10403;54.092;12.122;2024-03-17T03:21:07;5.40;99.90
20489;DHT22;10403;54.092;12.122;2024-03-17T03:23:34;5.50;99.90
20489;DHT22;10403;54.092;12.122;2024-03-17T03:26:03;5.80;99.90
20489;DHT22;10403;54.092;12.122;2024-03-17T03:28:33;5.40;99.90
20489;DHT22;10403;54.092;12.122;2024-03-17T03:30:59;5.40;99.90
20489;DHT22;10403;54.092;12.122;2024-03-17T03:33:26;5.30;99.90
20489;DHT22;10403;54.092;12.122;2024-03-17T03:35:53;5.40;99.90
20489;DHT22;10403;54.092;12.122;2024-03-17T03:38:22;5.30;99.90
20489;DHT22;10403;54.092;12.122;2024-03-17T03:41:13;5.30;99.90
20489;DHT22;10403;54.092;12.122;2024-03-17T03:43:41;5.70;99.90
20489;DHT22;10403;54.092;12.122;2024-03-17T03:46:08;5.60;99.90
20489;DHT22;10403;54.092;12.122;2024-03-17T03:48:35;5.30;99.90
20489;DHT22;10403;54.092;12.122;2024-03-17T03:51:05;5.90;99.90
20489;DHT22;10403;54.092;12.122;2024-03-17T03:53:36;5.30;99.90
20489;DHT22;10403;54.092;12.122;2024-03-17T03:56:05;5.30;99.90
20489;DHT22;10403;54.092;12.122;2024-03-17T03:58:33;5.30;99.90
20489;DHT22;10403;54.092;12.122;2024-03-17T04:01:08;5.30;99.90
20489;DHT22;10403;54.092;12.122;2024-03-17T04:03:37;5.30;99.90
20489;DHT22;10403;54.092;12.122;2024-03-17T04:06:06;5.40;99.90
20489;DHT22;10403;54.092;12.122;2024-03-17T04:08:34;6.10;99.90
20489;DHT22;10403;54.092;12.122;2024-03-17T04:11:02;5.30;99.90
20489;DHT22;10403;54.092;12.122;2024-03-17T04:13:29;5.30;99.90
20489;DHT22;10403;54.092;12.122;2024-03-17T04:15:57;5.20;99.90
20489;DHT22;10403;54.092;12.122;2024-03-17T04:18:26;5.20;99.90
20489;DHT22;10403;54.092;12.122;2024-03-17T04:20:53;5.30;99.90
20489;DHT22;10403;54.092;12.122;2024-03-17T04:23:20;5.20;99.90
20489;DHT22;10403;54.092;12.122;2024-03-17T04:25:48;5.10;99.90
20489;DHT22;10403;54.092;12.122;2024-03-17T04:28:16;5.20;99.90
20489;DHT22;10403;54.092;12.122;2024-03-17T04:30:43;5.40;99.90
20489;DHT22;10403;54.092;12.122;2024-03-17T04:33:09;5.10;99.90
20489;DHT22;10403;54.092;12.122;2024-03-17T04:35:40;5.20;99.90
20489;DHT22;10403;54.092;12.122;2024-03-17T04:38:10;5.60;99.90
20489;DHT22;10403;54.092;12.122;2024-03-17T04:40:40;5.00;99.90
20489;DHT22;10403;54.092;12.122;2024-03-17T04:43:08;5.00;99.90
20489;DHT22;10403;54.092;12.122;2024-03-17T04:45:35;5.10;99.90
20489;DHT22;10403;54.092;12.122;2024-03-17T04:48:01;6.00;99.90
20489;DHT22;10403;54.092;12.122;2024-03-17T04:50:28;4.90;99.90
20489;DHT22;10403;54.092;12.122;2024-03-17T04:52:59;4.90;99.90
20489;DHT22;10403;54.092;12.122;2024-03-17T04:55:26;4.90;99.90
20489;DHT22;10403;54.092;12.122;2024-03-17T04:57:52;4.90;99.90
20489;DHT22;10403;54.092;12.122;2024-03-17T05:00:19;4.80;99.90
20489;DHT22;10403;54.092;12.122;2024-03-17T05:02:47;4.80;99.90
20489;DHT22;10403;54.092;12.122;2024-03-17T05:05:13;4.80;99.90
20489;DHT22;10403;54.092;12.122;2024-03-17T05:07:39;4.90;99.90
20489;DHT22;10403;54.092;12.122;2024-03-17T05:10:06;4.90;99.90
20489;DHT22;10403;54.092;12.122;2024-03-17T05:12:33;4.80;99.90
20489;DHT22;10403;54.092;12.122;2024-03-17T05:15:00;5.80;99.90
20489;DHT22;10403;54.092;12.122;2024-03-17T05:17:26;5.70;99.90
20489;DHT22;10403;54.092;12.122;2024-03-17T05:19:52;4.90;99.90
20489;DHT22;10403;54.092;12.122;2024-03-17T05:22:19;4.90;99.90
20489;DHT22;10403;54.092;12.122;2024-03-17T05:24:45;4.90;99.90
20489;DHT22;10403;54.092;12.122;2024-03-17T05:27:11;4.90;99.90
20489;DHT22;10403;54.092;12.122;2024-03-17T05:29:38;5.30;99.90
20489;DHT22;10403;54.092;12.122;2024-03-17T05:32:05;5.00;99.90
20489;DHT22;10403;54.092;12.122;2024-03-17T05:34:31;5.00;99.90
20489;DHT22;10403;54.092;12.122;2024-03-17T05:36:59;5.10;99.90
20489;DHT22;10403;54.092;12.122;2024-03-17T05:39:25;5.00;99.90
20489;DHT22;10403;54.092;12.122;2024-03-17T05:41:51;5.00;99.90
20489;DHT22;10403;54.092;12.122;2024-03-17T05:44:18;5.00;99.90
20489;DHT22;10403;54.092;12.122;2024-03-17T05:46:44;5.30;99.90
20489;DHT22;10403;54.092;12.122;2024-03-17T05:49:11;5.00;99.90
20489;DHT22;10403;54.092;12.122;2024-03-17T05:51:37;5.00;99.90
20489;DHT22;10403;54.092;12.122;2024-03-17T05:54:04;5.20;99.90
20489;DHT22;10403;54.092;12.122;2024-03-17T05:56:30;5.10;99.90
20489;DHT22;10403;54.092;12.122;2024-03-17T05:58:57;5.00;99.90
20489;DHT22;10403;54.092;12.122;2024-03-17T06:01:23;5.40;99.90
20489;DHT22;10403;54.092;12.122;2024-03-17T06:03:49;5.20;99.90
20489;DHT22;10403;54.092;12.122;2024-03-17T06:06:16;5.10;99.90
20489;DHT22;10403;54.092;12.122;2024-03-17T06:08:42;5.10;99.90
20489;DHT22;10403;54.092;12.122;2024-03-17T06:11:08;5.70;99.90
20489;DHT22;10403;54.092;12.122;2024-03-17T06:13:35;5.20;99.90
20489;DHT22;10403;54.092;12.122;2024-03-17T06:16:03;5.10;99.90
20489;DHT22;10403;54.092;12.122;2024-03-17T06:18:31;5.10;99.90
20489;DHT22;10403;54.092;12.122;2024-03-17T06:20:57;5.80;99.90
20489;DHT22;10403;54.092;12.122;2024-03-17T06:23:25;5.10;99.90
20489;DHT22;10403;54.092;12.122;2024-03-17T06:25:54;5.80;99.90
20489;DHT22;10403;54.092;12.122;2024-03-17T06:28:21;5.20;99.90
20489;DHT22;10403;54.092;12.122;2024-03-17T06:30:58;5.50;99.90
20489;DHT22;10403;54.092;12.122;2024-03-17T06:33:30;5.10;99.90
20489;DHT22;10403;54.092;12.122;2024-03-17T06:36:01;6.10;99.90
20489;DHT22;10403;54.092;12.122;2024-03-17T06:38:33;5.30;99.90
20489;DHT22;10403;54.092;12.122;2024-03-17T06:41:00;5.30;99.90
20489;DHT22;10403;54.092;12.122;2024-03-17T06:43:26;5.30;99.90
20489;DHT22;10403;54.092;12.122;2024-03-17T06:45:57;5.30;99.90
20489;DHT22;10403;54.092;12.122;2024-03-17T06:48:25;5.30;99.90
20489;DHT22;10403;54.092;12.122;2024-03-17T06:50:53;5.30;99.90
20489;DHT22;10403;54.092;12.122;2024-03-17T06:53:24;5.40;99.90
20489;DHT22;10403;54.092;12.122;2024-03-17T06:55:56;5.30;99.90
20489;DHT22;10403;54.092;12.122;2024-03-17T06:58:25;5.30;99.90
20489;DHT22;10403;54.092;12.122;2024-03-17T07:00:55;5.30;99.90
20489;DHT22;10403;54.092;12.122;2024-03-17T07:03:30;5.40;99.90
20489;DHT22;10403;54.092;12.122;2024-03-17T07:05:58;5.40;99.90
20489;DHT22;10403;54.092;12.122;2024-03-17T07:08:32;5.40;99.90
20489;DHT22;10403;54.092;12.122;2024-03-17T07:11:04;5.40;99.90
20489;DHT22;10403;54.092;12.122;2024-03-17T07:13:34;5.40;99.90
20489;DHT22;10403;54.092;12.122;2024-03-17T07:16:08;5.40;99.90
20489;DHT22;10403;54.092;12.122;2024-03-17T07:18:36;5.50;99.90
20489;DHT22;10403;54.092;12.122;2024-03-17T07:21:04;5.50;99.90
20489;DHT22;10403;54.092;12.122;2024-03-17T07:23:31;5.50;99.90
20489;DHT22;10403;54.092;12.122;2024-03-17T07:26:00;5.50;99.90
20489;DHT22;10403;54.092;12.122;2024-03-17T07:28:27;5.50;99.90
20489;DHT22;10403;54.092;12.122;2024-03-17T07:30:55;5.50;99.90
20489;DHT22;10403;54.092;12.122;2024-03-17T07:33:23;5.50;99.90
20489;DHT22;10403;54.092;12.122;2024-03-17T07:35:51;5.50;99.90
20489;DHT22;10403;54.092;12.122;2024-03-17T07:38:27;5.50;99.90
20489;DHT22;10403;54.092;12.122;2024-03-17T07:41:00;5.90;99.90
20489;DHT22;10403;54.092;12.122;2024-03-17T07:43:28;5.50;99.90
20489;DHT22;10403;54.092;12.122;2024-03-17T07:46:04;5.60;99.90
20489;DHT22;10403;54.092;12.122;2024-03-17T07:48:34;5.70;99.90
20489;DHT22;10403;54.092;12.122;2024-03-17T07:51:09;5.70;99.90
20489;DHT22;10403;54.092;12.122;2024-03-17T07:53:42;5.90;99.90
20489;DHT22;10403;54.092;12.122;2024-03-17T07:56:15;5.80;99.90
20489;DHT22;10403;54.092;12.122;2024-03-17T07:58:43;5.80;99.90
20489;DHT22;10403;54.092;12.122;2024-03-17T08:01:15;5.80;99.90
20489;DHT22;10403;54.092;12.122;2024-03-17T08:03:46;5.80;99.90
20489;DHT22;10403;54.092;12.122;2024-03-17T08:06:19;5.80;99.90
20489;DHT22;10403;54.092;12.122;2024-03-17T08:08:46;5.70;99.90
20489;DHT22;10403;54.092;12.122;2024-03-17T08:11:13;5.80;99.90
20489;DHT22;10403;54.092;12.122;2024-03-17T08:13:39;5.60;99.90
20489;DHT22;10403;54.092;12.122;2024-03-17T08:16:07;5.60;99.90
20489;DHT22;10403;54.092;12.122;2024-03-17T08:18:36;5.60;99.90
20489;DHT22;10403;54.092;12.122;2024-03-17T08:21:04;5.70;99.90
20489;DHT22;10403;54.092;12.122;2024-03-17T08:23:33;5.70;99.90
20489;DHT22;10403;54.092;12.122;2024-03-17T08:26:03;6.10;99.90
20489;DHT22;10403;54.092;12.122;2024-03-17T08:28:30;5.90;99.90
20489;DHT22;10403;54.092;12.122;2024-03-17T08:31:01;6.00;99.90
20489;DHT22;10403;54.092;12.122;2024-03-17T08:33:29;6.10;99.90
20489;DHT22;10403;54.092;12.122;2024-03-17T08:36:04;6.10;99.90
20489;DHT22;10403;54.092;12.122;2024-03-17T08:38:34;6.10;99.90
20489;DHT22;10403;54.092;12.122;2024-03-17T08:41:09;6.10;99.90
20489;DHT22;10403;54.092;12.122;2024-03-17T08:43:37;6.00;99.90
20489;DHT22;10403;54.092;12.122;2024-03-17T08:46:08;6.10;99.90
20489;DHT22;10403;54.092;12.122;2024-03-17T08:48:37;6.00;99.90
20489;DHT22;10403;54.092;12.122;2024-03-17T08:51:06;6.00;99.90
20489;DHT22;10403;54.092;12.122;2024-03-17T08:53:33;6.10;99.90
20489;DHT22;10403;54.092;12.122;2024-03-17T08:56:02;6.10;99.90
20489;DHT22;10403;54.092;12.122;2024-03-17T08:58:29;6.20;99.90
20489;DHT22;10403;54.092;12.122;2024-03-17T09:00:55;6.10;99.90
20489;DHT22;10403;54.092;12.122;2024-03-17T09:03:22;6.10;99.90
20489;DHT22;10403;54.092;12.122;2024-03-17T09:05:48;6.10;99.90
20489;DHT22;10403;54.092;12.122;2024-03-17T09:08:24;6.20;99.90
20489;DHT22;10403;54.092;12.122;2024-03-17T09:10:52;6.10;99.90
20489;DHT22;10403;54.092;12.122;2024-03-17T09:13:21;6.10;99.90
20489;DHT22;10403;54.092;12.122;2024-03-17T09:15:59;6.20;99.90
20489;DHT22;10403;54.092;12.122;2024-03-17T09:18:27;6.20;99.90
20489;DHT22;10403;54.092;12.122;2024-03-17T09:21:01;6.20;99.90
20489;DHT22;10403;54.092;12.122;2024-03-17T09:23:34;6.50;99.90
20489;DHT22;10403;54.092;12.122;2024-03-17T09:26:05;6.20;99.90
20489;DHT22;10403;54.092;12.122;2024-03-17T09:28:37;6.20;99.90
20489;DHT22;10403;54.092;12.122;2024-03-17T09:31:04;6.10;99.90
20489;DHT22;10403;54.092;12.122;2024-03-17T09:33:34;6.10;99.90
20489;DHT22;10403;54.092;12.122;2024-03-17T09:36:03;6.00;99.90
20489;DHT22;10403;54.092;12.122;2024-03-17T09:38:35;5.90;99.90
20489;DHT22;10403;54.092;12.122;2024-03-17T09:41:02;5.90;99.90
20489;DHT22;10403;54.092;12.122;2024-03-17T09:43:31;5.90;99.90
20489;DHT22;10403;54.092;12.122;2024-03-17T09:46:01;6.00;99.90
20489;DHT22;10403;54.092;12.122;2024-03-17T09:48:28;6.00;99.90
20489;DHT22;10403;54.092;12.122;2024-03-17T09:50:59;6.00;99.90
20489;DHT22;10403;54.092;12.122;2024-03-17T09:53:32;6.00;99.80
20489;DHT22;10403;54.092;12.122;2024-03-17T09:56:10;6.10;99.70
20489;DHT22;10403;54.092;12.122;2024-03-17T09:58:38;6.10;99.70
20489;DHT22;10403;54.092;12.122;2024-03-17T10:01:05;6.20;99.90
20489;DHT22;10403;54.092;12.122;2024-03-17T10:03:49;6.30;99.90
20489;DHT22;10403;54.092;12.122;2024-03-17T10:06:30;6.50;99.70
20489;DHT22;10403;54.092;12.122;2024-03-17T10:09:03;6.40;99.50
20489;DHT22;10403;54.092;12.122;2024-03-17T10:11:36;6.40;99.30
20489;DHT22;10403;54.092;12.122;2024-03-17T10:14:05;6.40;99.40
20489;DHT22;10403;54.092;12.122;2024-03-17T10:16:35;6.50;99.30
20489;DHT22;10403;54.092;12.122;2024-03-17T10:21:38;6.50;99.00
20489;DHT22;10403;54.092;12.122;2024-03-17T10:26:56;6.50;98.80
20489;DHT22;10403;54.092;12.122;2024-03-17T10:32:18;6.40;98.70
20489;DHT22;10403;54.092;12.122;2024-03-17T10:34:48;6.40;98.90
20489;DHT22;10403;54.092;12.122;2024-03-17T10:37:16;6.50;98.80
20489;DHT22;10403;54.092;12.122;2024-03-17T10:39:46;6.60;98.80
20489;DHT22;10403;54.092;12.122;2024-03-17T10:42:28;6.70;98.70
20489;DHT22;10403;54.092;12.122;2024-03-17T10:44:55;6.70;98.60
20489;DHT22;10403;54.092;12.122;2024-03-17T10:47:26;6.60;98.50
20489;DHT22;10403;54.092;12.122;2024-03-17T10:49:54;6.60;98.80
20489;DHT22;10403;54.092;12.122;2024-03-17T10:52:23;6.80;98.90
20489;DHT22;10403;54.092;12.122;2024-03-17T10:54:53;6.90;98.70
20489;DHT22;10403;54.092;12.122;2024-03-17T11:00:04;6.80;98.30
20489;DHT22;10403;54.092;12.122;2024-03-17T11:02:35;6.80;98.50
20489;DHT22;10403;54.092;12.122;2024-03-17T11:05:02;6.80;98.40
20489;DHT22;10403;54.092;12.122;2024-03-17T11:07:32;6.90;98.40
20489;DHT22;10403;54.092;12.122;2024-03-17T11:10:04;6.80;98.10
20489;DHT22;10403;54.092;12.122;2024-03-17T11:17:46;6.70;98.10
20489;DHT22;10403;54.092;12.122;2024-03-17T11:22:53;6.80;98.20
20489;DHT22;10403;54.092;12.122;2024-03-17T11:27:57;6.90;98.20
20489;DHT22;10403;54.092;12.122;2024-03-17T11:30:44;7.00;98.30
20489;DHT22;10403;54.092;12.122;2024-03-17T11:39:09;7.30;98.10
20489;DHT22;10403;54.092;12.122;2024-03-17T11:41:54;7.30;97.90
20489;DHT22;10403;54.092;12.122;2024-03-17T11:49:26;7.10;97.90
20489;DHT22;10403;54.092;12.122;2024-03-17T11:51:55;7.00;97.80
20489;DHT22;10403;54.092;12.122;2024-03-17T11:54:36;6.90;98.00
20489;DHT22;10403;54.092;12.122;2024-03-17T11:57:08;7.00;98.20
20489;DHT22;10403;54.092;12.122;2024-03-17T11:59:37;6.90;98.20
20489;DHT22;10403;54.092;12.122;2024-03-17T12:04:45;7.10;98.20
20489;DHT22;10403;54.092;12.122;2024-03-17T12:07:16;7.10;98.20
20489;DHT22;10403;54.092;12.122;2024-03-17T12:09:45;7.10;98.10
20489;DHT22;10403;54.092;12.122;2024-03-17T12:12:20;7.20;98.10
20489;DHT22;10403;54.092;12.122;2024-03-17T12:14:48;7.30;98.20
20489;DHT22;10403;54.092;12.122;2024-03-17T12:17:23;7.30;98.20
20489;DHT22;10403;54.092;12.122;2024-03-17T12:19:50;7.30;98.00
20489;DHT22;10403;54.092;12.122;2024-03-17T12:22:21;7.20;97.90
20489;DHT22;10403;54.092;12.122;2024-03-17T12:24:55;7.20;97.90
20489;DHT22;10403;54.092;12.122;2024-03-17T12:27:23;7.30;98.00
20489;DHT22;10403;54.092;12.122;2024-03-17T12:29:54;7.30;97.90
20489;DHT22;10403;54.092;12.122;2024-03-17T12:32:22;7.30;97.90
20489;DHT22;10403;54.092;12.122;2024-03-17T12:34:54;7.30;98.00
20489;DHT22;10403;54.092;12.122;2024-03-17T12:37:25;7.30;98.00
20489;DHT22;10403;54.092;12.122;2024-03-17T12:39:58;7.30;97.90
20489;DHT22;10403;54.092;12.122;2024-03-17T12:42:29;7.30;97.90
20489;DHT22;10403;54.092;12.122;2024-03-17T12:44:57;7.30;97.90
20489;DHT22;10403;54.092;12.122;2024-03-17T12:47:26;7.30;97.80
20489;DHT22;10403;54.092;12.122;2024-03-17T12:49:57;7.40;97.80
20489;DHT22;10403;54.092;12.122;2024-03-17T12:52:32;7.40;97.70
20489;DHT22;10403;54.092;12.122;2024-03-17T12:55:07;7.30;97.50
20489;DHT22;10403;54.092;12.122;2024-03-17T13:01:04;7.30;97.60
20489;DHT22;10403;54.092;12.122;2024-03-17T13:03:34;7.30;97.70
20489;DHT22;10403;54.092;12.122;2024-03-17T13:06:03;7.30;97.70
20489;DHT22;10403;54.092;12.122;2024-03-17T13:08:33;7.30;97.60
20489;DHT22;10403;54.092;12.122;2024-03-17T13:10:59;7.20;97.70
20489;DHT22;10403;54.092;12.122;2024-03-17T13:13:26;7.20;97.50
20489;DHT22;10403;54.092;12.122;2024-03-17T13:15:53;7.10;97.50
20489;DHT22;10403;54.092;12.122;2024-03-17T13:18:20;7.10;97.60
20489;DHT22;10403;54.092;12.122;2024-03-17T13:20:47;7.10;97.60
20489;DHT22;10403;54.092;12.122;2024-03-17T13:23:19;7.20;97.60
20489;DHT22;10403;54.092;12.122;2024-03-17T13:25:50;7.10;97.50
20489;DHT22;10403;54.092;12.122;2024-03-17T13:28:17;7.10;97.50
20489;DHT22;10403;54.092;12.122;2024-03-17T13:30:43;7.10;97.70
20489;DHT22;10403;54.092;12.122;2024-03-17T13:33:10;7.10;97.80
20489;DHT22;10403;54.092;12.122;2024-03-17T13:35:40;7.10;98.00
20489;DHT22;10403;54.092;12.122;2024-03-17T13:38:08;7.10;98.00
20489;DHT22;10403;54.092;12.122;2024-03-17T13:40:38;7.10;98.00
20489;DHT22;10403;54.092;12.122;2024-03-17T13:43:06;7.00;97.80
20489;DHT22;10403;54.092;12.122;2024-03-17T13:45:40;7.00;97.70
20489;DHT22;10403;54.092;12.122;2024-03-17T13:48:09;7.00;97.80
20489;DHT22;10403;54.092;12.122;2024-03-17T13:50:39;7.00;97.70
20489;DHT22;10403;54.092;12.122;2024-03-17T13:53:11;7.00;97.70
20489;DHT22;10403;54.092;12.122;2024-03-17T13:55:37;7.00;97.60
20489;DHT22;10403;54.092;12.122;2024-03-17T13:58:04;7.00;97.60
20489;DHT22;10403;54.092;12.122;2024-03-17T14:00:32;7.00;97.60
20489;DHT22;10403;54.092;12.122;2024-03-17T14:03:04;6.90;97.60
20489;DHT22;10403;54.092;12.122;2024-03-17T14:05:31;6.90;97.50
20489;DHT22;10403;54.092;12.122;2024-03-17T14:08:01;6.80;97.40
20489;DHT22;10403;54.092;12.122;2024-03-17T14:10:28;6.90;97.50
20489;DHT22;10403;54.092;12.122;2024-03-17T14:12:55;6.90;97.50
20489;DHT22;10403;54.092;12.122;2024-03-17T14:15:23;6.90;97.50
20489;DHT22;10403;54.092;12.122;2024-03-17T14:17:51;6.80;97.50
20489;DHT22;10403;54.092;12.122;2024-03-17T14:20:18;6.90;97.50
20489;DHT22;10403;54.092;12.122;2024-03-17T14:22:45;6.80;97.40
20489;DHT22;10403;54.092;12.122;2024-03-17T14:25:23;6.80;97.50
20489;DHT22;10403;54.092;12.122;2024-03-17T14:27:51;6.80;97.40
20489;DHT22;10403;54.092;12.122;2024-03-17T14:30:19;6.80;97.40
20489;DHT22;10403;54.092;12.122;2024-03-17T14:32:46;6.80;97.60
20489;DHT22;10403;54.092;12.122;2024-03-17T14:35:18;6.80;97.50
20489;DHT22;10403;54.092;12.122;2024-03-17T14:37:46;6.80;97.40
20489;DHT22;10403;54.092;12.122;2024-03-17T14:40:18;6.80;97.30
20489;DHT22;10403;54.092;12.122;2024-03-17T14:42:52;6.80;97.40
20489;DHT22;10403;54.092;12.122;2024-03-17T14:45:20;6.80;97.30
20489;DHT22;10403;54.092;12.122;2024-03-17T14:47:49;6.80;97.40
20489;DHT22;10403;54.092;12.122;2024-03-17T14:50:15;6.80;97.30
20489;DHT22;10403;54.092;12.122;2024-03-17T14:52:45;6.70;97.30
20489;DHT22;10403;54.092;12.122;2024-03-17T14:55:12;6.70;97.30
20489;DHT22;10403;54.092;12.122;2024-03-17T14:57:40;6.70;97.20
20489;DHT22;10403;54.092;12.122;2024-03-17T15:00:11;6.60;97.30
20489;DHT22;10403;54.092;12.122;2024-03-17T15:02:56;6.70;97.40
20489;DHT22;10403;54.092;12.122;2024-03-17T15:05:23;6.70;97.30
20489;DHT22;10403;54.092;12.122;2024-03-17T15:07:51;6.70;97.50
20489;DHT22;10403;54.092;12.122;2024-03-17T15:10:19;6.70;97.50
20489;DHT22;10403;54.092;12.122;2024-03-17T15:12:47;6.70;97.50
20489;DHT22;10403;54.092;12.122;2024-03-17T15:15:14;6.70;97.50
20489;DHT22;10403;54.092;12.122;2024-03-17T15:17:41;6.70;97.50
20489;DHT22;10403;54.092;12.122;2024-03-17T15:20:11;6.70;97.60
20489;DHT22;10403;54.092;12.122;2024-03-17T15:22:48;6.70;97.70
20489;DHT22;10403;54.092;12.122;2024-03-17T15:25:16;6.70;97.80
20489;DHT22;10403;54.092;12.122;2024-03-17T15:27:43;6.80;97.90
20489;DHT22;10403;54.092;12.122;2024-03-17T15:30:18;6.70;97.80
20489;DHT22;10403;54.092;12.122;2024-03-17T15:32:46;6.80;97.80
20489;DHT22;10403;54.092;12.122;2024-03-17T15:35:13;6.70;97.80
20489;DHT22;10403;54.092;12.122;2024-03-17T15:37:40;6.70;97.90
20489;DHT22;10403;54.092;12.122;2024-03-17T15:40:09;6.70;97.90
20489;DHT22;10403;54.092;12.122;2024-03-17T15:42:47;6.70;98.00
20489;DHT22;10403;54.092;12.122;2024-03-17T15:45:16;6.70;97.90
20489;DHT22;10403;54.092;12.122;2024-03-17T15:47:46;6.70;97.90
20489;DHT22;10403;54.092;12.122;2024-03-17T15:50:14;6.70;97.90
20489;DHT22;10403;54.092;12.122;2024-03-17T15:52:42;6.70;97.80
20489;DHT22;10403;54.092;12.122;2024-03-17T15:55:10;6.70;97.90
20489;DHT22;10403;54.092;12.122;2024-03-17T15:57:37;6.70;97.80
20489;DHT22;10403;54.092;12.122;2024-03-17T16:00:04;6.70;97.90
20489;DHT22;10403;54.092;12.122;2024-03-17T16:02:35;6.70;97.90
20489;DHT22;10403;54.092;12.122;2024-03-17T16:05:04;6.70;98.00
20489;DHT22;10403;54.092;12.122;2024-03-17T16:07:38;6.70;98.10
20489;DHT22;10403;54.092;12.122;2024-03-17T16:10:05;6.70;98.10
20489;DHT22;10403;54.092;12.122;2024-03-17T16:12:37;6.70;98.10
20489;DHT22;10403;54.092;12.122;2024-03-17T16:15:04;6.70;98.00
20489;DHT22;10403;54.092;12.122;2024-03-17T16:17:33;6.70;98.00
20489;DHT22;10403;54.092;12.122;2024-03-17T16:20:02;6.70;97.90